sensor_id;sensor_type;location;lat;lon;timestamp;temperature;humidity
16347;DHT22;8283;48.504;13.734;2024-03-02T00:01:14;10.70;85.90
16347;DHT22;8283;48.504;13.734;2024-03-02T00:03:34;10.70;85.90
16347;DHT22;8283;48.504;13.734;2024-03-02T00:05:54;10.70;85.90
16347;DHT22;8283;48.504;13.734;2024-03-02T00:08:15;10.80;86.10
16347;DHT22;8283;48.504;13.734;2024-03-02T00:10:39;10.70;86.10
16347;DHT22;8283;48.504;13.734;2024-03-02T00:12:59;10.80;86.20
16347;DHT22;8283;48.504;13.734;2024-03-02T00:17:43;10.70;86.30
16347;DHT22;8283;48.504;13.734;2024-03-02T00:20:03;10.70;85.70
16347;DHT22;8283;48.504;13.734;2024-03-02T00:22:23;10.70;85.70
16347;DHT22;8283;48.504;13.734;2024-03-02T00:24:42;11.00;85.90
16347;DHT22;8283;48.504;13.734;2024-03-02T00:27:03;10.70;85.80
16347;DHT22;8283;48.504;13.734;2024-03-02T00:29:23;10.70;86.10
16347;DHT22;8283;48.504;13.734;2024-03-02T00:31:43;10.30;85.70
16347;DHT22;8283;48.504;13.734;2024-03-02T00:34:05;10.70;86.00
16347;DHT22;8283;48.504;13.734;2024-03-02T00:36:26;10.60;86.20
16347;DHT22;8283;48.504;13.734;2024-03-02T00:38:50;10.60;86.10
16347;DHT22;8283;48.504;13.734;2024-03-02T00:41:36;10.60;86.40
16347;DHT22;8283;48.504;13.734;2024-03-02T00:46:18;10.60;85.90
16347;DHT22;8283;48.504;13.734;2024-03-02T00:48:47;10.60;86.20
16347;DHT22;8283;48.504;13.734;2024-03-02T00:51:08;10.60;85.80
16347;DHT22;8283;48.504;13.734;2024-03-02T00:53:27;10.60;85.70
16347;DHT22;8283;48.504;13.734;2024-03-02T00:55:47;10.50;85.50
16347;DHT22;8283;48.504;13.734;2024-03-02T00:58:08;10.50;85.50
16347;DHT22;8283;48.504;13.734;2024-03-02T01:00:27;10.50;85.30
16347;DHT22;8283;48.504;13.734;2024-03-02T01:02:46;10.50;85.30
16347;DHT22;8283;48.504;13.734;2024-03-02T01:05:06;10.40;85.10
16347;DHT22;8283;48.504;13.734;2024-03-02T01:07:27;10.40;85.20
16347;DHT22;8283;48.504;13.734;2024-03-02T01:09:46;10.40;85.10
16347;DHT22;8283;48.504;13.734;2024-03-02T01:12:05;10.30;85.10
16347;DHT22;8283;48.504;13.734;2024-03-02T01:14:25;10.30;85.20
16347;DHT22;8283;48.504;13.734;2024-03-02T01:16:44;10.20;85.10
16347;DHT22;8283;48.504;13.734;2024-03-02T01:19:04;10.20;85.00
16347;DHT22;8283;48.504;13.734;2024-03-02T01:21:23;10.20;84.90
16347;DHT22;8283;48.504;13.734;2024-03-02T01:23:42;10.10;84.70
16347;DHT22;8283;48.504;13.734;2024-03-02T01:26:02;10.00;84.70
16347;DHT22;8283;48.504;13.734;2024-03-02T01:28:22;10.00;84.70
16347;DHT22;8283;48.504;13.734;2024-03-02T01:30:42;8.70;84.10
16347;DHT22;8283;48.504;13.734;2024-03-02T01:33:01;9.90;84.90
16347;DHT22;8283;48.504;13.734;2024-03-02T01:35:21;9.80;84.90
16347;DHT22;8283;48.504;13.734;2024-03-02T01:37:41;9.80;85.10
16347;DHT22;8283;48.504;13.734;2024-03-02T01:40:00;9.80;85.10
16347;DHT22;8283;48.504;13.734;2024-03-02T01:42:20;10.50;85.60
16347;DHT22;8283;48.504;13.734;2024-03-02T01:44:40;9.70;85.20
16347;DHT22;8283;48.504;13.734;2024-03-02T01:46:59;9.70;85.40
16347;DHT22;8283;48.504;13.734;2024-03-02T01:49:18;9.70;85.50
16347;DHT22;8283;48.504;13.734;2024-03-02T01:51:38;9.70;85.70
16347;DHT22;8283;48.504;13.734;2024-03-02T01:53:57;9.40;85.40
16347;DHT22;8283;48.504;13.734;2024-03-02T01:56:16;9.70;85.60
16347;DHT22;8283;48.504;13.734;2024-03-02T01:58:36;9.70;85.70
16347;DHT22;8283;48.504;13.734;2024-03-02T02:00:56;9.70;85.90
16347;DHT22;8283;48.504;13.734;2024-03-02T02:03:15;9.70;86.00
16347;DHT22;8283;48.504;13.734;2024-03-02T02:05:35;9.70;86.00
16347;DHT22;8283;48.504;13.734;2024-03-02T02:07:54;9.70;86.00
16347;DHT22;8283;48.504;13.734;2024-03-02T02:10:14;9.70;85.90
16347;DHT22;8283;48.504;13.734;2024-03-02T02:12:34;9.70;85.90
16347;DHT22;8283;48.504;13.734;2024-03-02T02:14:54;9.70;86.00
16347;DHT22;8283;48.504;13.734;2024-03-02T02:17:14;9.70;86.10
16347;DHT22;8283;48.504;13.734;2024-03-02T02:19:36;9.70;86.20
16347;DHT22;8283;48.504;13.734;2024-03-02T02:21:55;9.70;86.30
16347;DHT22;8283;48.504;13.734;2024-03-02T02:24:15;9.80;86.40
16347;DHT22;8283;48.504;13.734;2024-03-02T02:26:34;9.80;86.50
16347;DHT22;8283;48.504;13.734;2024-03-02T02:28:53;9.80;86.50
16347;DHT22;8283;48.504;13.734;2024-03-02T02:31:13;9.80;86.50
16347;DHT22;8283;48.504;13.734;2024-03-02T02:33:33;9.80;86.50
16347;DHT22;8283;48.504;13.734;2024-03-02T02:35:52;9.80;86.40
16347;DHT22;8283;48.504;13.734;2024-03-02T02:38:11;9.80;86.30
16347;DHT22;8283;48.504;13.734;2024-03-02T02:40:31;9.80;86.40
16347;DHT22;8283;48.504;13.734;2024-03-02T02:42:50;9.80;86.50
16347;DHT22;8283;48.504;13.734;2024-03-02T02:45:13;9.80;86.60
16347;DHT22;8283;48.504;13.734;2024-03-02T02:47:33;9.80;86.60
16347;DHT22;8283;48.504;13.734;2024-03-02T02:49:54;9.80;86.70
16347;DHT22;8283;48.504;13.734;2024-03-02T02:52:13;9.80;86.70
16347;DHT22;8283;48.504;13.734;2024-03-02T02:54:33;9.80;86.70
16347;DHT22;8283;48.504;13.734;2024-03-02T02:56:52;9.80;86.80
16347;DHT22;8283;48.504;13.734;2024-03-02T02:59:11;9.80;86.80
16347;DHT22;8283;48.504;13.734;2024-03-02T03:01:31;9.80;86.90
16347;DHT22;8283;48.504;13.734;2024-03-02T03:03:50;9.80;86.90
16347;DHT22;8283;48.504;13.734;2024-03-02T03:06:09;9.80;86.90
16347;DHT22;8283;48.504;13.734;2024-03-02T03:08:29;9.80;86.90
16347;DHT22;8283;48.504;13.734;2024-03-02T03:10:48;9.80;86.80
16347;DHT22;8283;48.504;13.734;2024-03-02T03:13:08;9.80;86.70
16347;DHT22;8283;48.504;13.734;2024-03-02T03:15:27;9.70;86.70
16347;DHT22;8283;48.504;13.734;2024-03-02T03:17:47;9.70;86.60
16347;DHT22;8283;48.504;13.734;2024-03-02T03:20:07;9.70;86.70
16347;DHT22;8283;48.504;13.734;2024-03-02T03:22:29;9.70;86.70
16347;DHT22;8283;48.504;13.734;2024-03-02T03:24:49;9.70;86.80
16347;DHT22;8283;48.504;13.734;2024-03-02T03:27:09;9.70;86.80
16347;DHT22;8283;48.504;13.734;2024-03-02T03:29:28;9.70;86.90
16347;DHT22;8283;48.504;13.734;2024-03-02T03:31:47;9.70;86.90
16347;DHT22;8283;48.504;13.734;2024-03-02T03:34:07;9.70;87.00
16347;DHT22;8283;48.504;13.734;2024-03-02T03:36:26;9.70;87.10
16347;DHT22;8283;48.504;13.734;2024-03-02T03:38:46;9.70;87.20
16347;DHT22;8283;48.504;13.734;2024-03-02T03:41:05;9.70;87.20
16347;DHT22;8283;48.504;13.734;2024-03-02T03:43:25;9.70;87.40
16347;DHT22;8283;48.504;13.734;2024-03-02T03:45:44;9.70;87.40
16347;DHT22;8283;48.504;13.734;2024-03-02T03:48:03;9.70;87.40
16347;DHT22;8283;48.504;13.734;2024-03-02T03:50:23;9.70;87.50
16347;DHT22;8283;48.504;13.734;2024-03-02T03:52:42;9.80;87.80
16347;DHT22;8283;48.504;13.734;2024-03-02T03:55:03;9.80;87.80
16347;DHT22;8283;48.504;13.734;2024-03-02T03:57:24;9.80;87.90
16347;DHT22;8283;48.504;13.734;2024-03-02T03:59:43;9.80;87.90
16347;DHT22;8283;48.504;13.734;2024-03-02T04:02:04;9.90;88.00
16347;DHT22;8283;48.504;13.734;2024-03-02T04:04:23;9.90;88.00
16347;DHT22;8283;48.504;13.734;2024-03-02T04:06:42;9.90;88.00
16347;DHT22;8283;48.504;13.734;2024-03-02T04:09:02;9.90;88.00
16347;DHT22;8283;48.504;13.734;2024-03-02T04:11:23;10.00;88.00
16347;DHT22;8283;48.504;13.734;2024-03-02T04:13:42;10.00;87.90
16347;DHT22;8283;48.504;13.734;2024-03-02T04:16:02;10.00;87.90
16347;DHT22;8283;48.504;13.734;2024-03-02T04:18:23;10.00;87.90
16347;DHT22;8283;48.504;13.734;2024-03-02T04:20:42;10.00;87.90
16347;DHT22;8283;48.504;13.734;2024-03-02T04:23:02;10.00;87.80
16347;DHT22;8283;48.504;13.734;2024-03-02T04:25:22;10.10;87.80
16347;DHT22;8283;48.504;13.734;2024-03-02T04:27:41;10.10;87.80
16347;DHT22;8283;48.504;13.734;2024-03-02T04:30:00;10.10;87.80
16347;DHT22;8283;48.504;13.734;2024-03-02T04:32:19;10.10;87.90
16347;DHT22;8283;48.504;13.734;2024-03-02T04:34:38;10.10;87.90
16347;DHT22;8283;48.504;13.734;2024-03-02T04:36:58;10.10;87.90
16347;DHT22;8283;48.504;13.734;2024-03-02T04:39:17;10.10;88.00
16347;DHT22;8283;48.504;13.734;2024-03-02T04:41:36;10.10;88.00
16347;DHT22;8283;48.504;13.734;2024-03-02T04:43:56;10.20;88.10
16347;DHT22;8283;48.504;13.734;2024-03-02T04:46:15;10.10;88.00
16347;DHT22;8283;48.504;13.734;2024-03-02T04:48:35;10.20;88.10
16347;DHT22;8283;48.504;13.734;2024-03-02T04:50:54;10.20;88.10
16347;DHT22;8283;48.504;13.734;2024-03-02T04:53:14;10.20;88.10
16347;DHT22;8283;48.504;13.734;2024-03-02T04:55:33;10.20;88.20
16347;DHT22;8283;48.504;13.734;2024-03-02T04:57:58;10.20;88.20
16347;DHT22;8283;48.504;13.734;2024-03-02T05:00:18;10.20;88.10
16347;DHT22;8283;48.504;13.734;2024-03-02T05:02:37;10.30;88.00
16347;DHT22;8283;48.504;13.734;2024-03-02T05:04:57;10.30;88.00
16347;DHT22;8283;48.504;13.734;2024-03-02T05:07:16;10.30;88.00
16347;DHT22;8283;48.504;13.734;2024-03-02T05:09:35;10.30;88.00
16347;DHT22;8283;48.504;13.734;2024-03-02T05:11:55;10.30;88.00
16347;DHT22;8283;48.504;13.734;2024-03-02T05:14:29;10.30;88.00
16347;DHT22;8283;48.504;13.734;2024-03-02T05:16:48;10.30;88.00
16347;DHT22;8283;48.504;13.734;2024-03-02T05:19:08;10.30;88.00
16347;DHT22;8283;48.504;13.734;2024-03-02T05:21:27;10.30;88.00
16347;DHT22;8283;48.504;13.734;2024-03-02T05:23:47;10.30;88.00
16347;DHT22;8283;48.504;13.734;2024-03-02T05:26:06;10.30;88.00
16347;DHT22;8283;48.504;13.734;2024-03-02T05:28:25;10.30;88.00
16347;DHT22;8283;48.504;13.734;2024-03-02T05:30:45;10.30;88.10
16347;DHT22;8283;48.504;13.734;2024-03-02T05:33:05;10.30;88.10
16347;DHT22;8283;48.504;13.734;2024-03-02T05:35:24;10.30;88.70
16347;DHT22;8283;48.504;13.734;2024-03-02T05:37:44;10.40;88.00
16347;DHT22;8283;48.504;13.734;2024-03-02T05:40:04;10.40;88.00
16347;DHT22;8283;48.504;13.734;2024-03-02T05:42:24;10.40;88.00
16347;DHT22;8283;48.504;13.734;2024-03-02T05:44:44;10.40;87.90
16347;DHT22;8283;48.504;13.734;2024-03-02T05:47:04;10.40;88.00
16347;DHT22;8283;48.504;13.734;2024-03-02T05:49:23;10.40;88.00
16347;DHT22;8283;48.504;13.734;2024-03-02T05:51:42;10.40;87.90
16347;DHT22;8283;48.504;13.734;2024-03-02T05:54:02;10.40;88.00
16347;DHT22;8283;48.504;13.734;2024-03-02T05:56:22;10.40;88.00
16347;DHT22;8283;48.504;13.734;2024-03-02T05:58:41;10.40;88.00
16347;DHT22;8283;48.504;13.734;2024-03-02T06:01:19;10.40;88.00
16347;DHT22;8283;48.504;13.734;2024-03-02T06:03:39;10.40;87.90
16347;DHT22;8283;48.504;13.734;2024-03-02T06:05:58;10.30;87.90
16347;DHT22;8283;48.504;13.734;2024-03-02T06:08:17;10.30;88.00
16347;DHT22;8283;48.504;13.734;2024-03-02T06:10:37;10.30;87.80
16347;DHT22;8283;48.504;13.734;2024-03-02T06:12:56;10.30;87.60
16347;DHT22;8283;48.504;13.734;2024-03-02T06:15:15;10.30;87.60
16347;DHT22;8283;48.504;13.734;2024-03-02T06:17:36;10.20;87.40
16347;DHT22;8283;48.504;13.734;2024-03-02T06:19:55;10.20;87.40
16347;DHT22;8283;48.504;13.734;2024-03-02T06:22:15;10.20;87.60
16347;DHT22;8283;48.504;13.734;2024-03-02T06:24:34;10.20;87.80
16347;DHT22;8283;48.504;13.734;2024-03-02T06:26:54;10.20;87.80
16347;DHT22;8283;48.504;13.734;2024-03-02T06:29:13;10.20;87.70
16347;DHT22;8283;48.504;13.734;2024-03-02T06:31:32;10.90;88.10
16347;DHT22;8283;48.504;13.734;2024-03-02T06:33:52;10.10;87.50
16347;DHT22;8283;48.504;13.734;2024-03-02T06:36:11;10.10;87.50
16347;DHT22;8283;48.504;13.734;2024-03-02T06:38:31;10.10;87.50
16347;DHT22;8283;48.504;13.734;2024-03-02T06:40:53;10.10;87.80
16347;DHT22;8283;48.504;13.734;2024-03-02T06:43:14;10.10;87.90
16347;DHT22;8283;48.504;13.734;2024-03-02T06:45:33;10.10;88.00
16347;DHT22;8283;48.504;13.734;2024-03-02T06:47:53;10.20;88.30
16347;DHT22;8283;48.504;13.734;2024-03-02T06:50:12;10.20;88.30
16347;DHT22;8283;48.504;13.734;2024-03-02T06:52:32;10.20;88.30
16347;DHT22;8283;48.504;13.734;2024-03-02T06:54:51;10.30;88.30
16347;DHT22;8283;48.504;13.734;2024-03-02T06:57:10;10.30;88.30
16347;DHT22;8283;48.504;13.734;2024-03-02T06:59:30;10.30;88.10
16347;DHT22;8283;48.504;13.734;2024-03-02T07:01:49;10.40;88.10
16347;DHT22;8283;48.504;13.734;2024-03-02T07:04:09;10.40;88.10
16347;DHT22;8283;48.504;13.734;2024-03-02T07:06:28;10.40;88.20
16347;DHT22;8283;48.504;13.734;2024-03-02T07:08:47;10.40;88.20
16347;DHT22;8283;48.504;13.734;2024-03-02T07:11:07;10.50;88.20
16347;DHT22;8283;48.504;13.734;2024-03-02T07:13:26;10.50;88.20
16347;DHT22;8283;48.504;13.734;2024-03-02T07:15:46;10.50;88.20
16347;DHT22;8283;48.504;13.734;2024-03-02T07:18:23;10.60;88.30
16347;DHT22;8283;48.504;13.734;2024-03-02T07:20:43;10.60;88.30
16347;DHT22;8283;48.504;13.734;2024-03-02T07:23:02;11.80;89.00
16347;DHT22;8283;48.504;13.734;2024-03-02T07:25:21;10.70;88.10
16347;DHT22;8283;48.504;13.734;2024-03-02T07:27:41;10.70;88.00
16347;DHT22;8283;48.504;13.734;2024-03-02T07:30:02;10.80;87.90
16347;DHT22;8283;48.504;13.734;2024-03-02T07:32:22;10.80;87.70
16347;DHT22;8283;48.504;13.734;2024-03-02T07:34:41;10.80;87.50
16347;DHT22;8283;48.504;13.734;2024-03-02T07:37:01;12.10;88.20
16347;DHT22;8283;48.504;13.734;2024-03-02T07:39:20;10.80;87.40
16347;DHT22;8283;48.504;13.734;2024-03-02T07:41:40;10.90;87.40
16347;DHT22;8283;48.504;13.734;2024-03-02T07:43:59;10.90;87.50
16347;DHT22;8283;48.504;13.734;2024-03-02T07:46:19;10.90;87.50
16347;DHT22;8283;48.504;13.734;2024-03-02T07:48:38;11.00;87.50
16347;DHT22;8283;48.504;13.734;2024-03-02T07:50:58;11.00;87.30
16347;DHT22;8283;48.504;13.734;2024-03-02T07:53:17;11.00;87.20
16347;DHT22;8283;48.504;13.734;2024-03-02T07:55:36;11.10;87.20
16347;DHT22;8283;48.504;13.734;2024-03-02T07:58:00;11.10;87.10
16347;DHT22;8283;48.504;13.734;2024-03-02T08:00:19;11.10;86.80
16347;DHT22;8283;48.504;13.734;2024-03-02T08:02:40;11.20;86.90
16347;DHT22;8283;48.504;13.734;2024-03-02T08:04:59;11.20;87.00
16347;DHT22;8283;48.504;13.734;2024-03-02T08:07:19;11.20;86.90
16347;DHT22;8283;48.504;13.734;2024-03-02T08:09:38;11.30;86.90
16347;DHT22;8283;48.504;13.734;2024-03-02T08:11:58;11.30;86.90
16347;DHT22;8283;48.504;13.734;2024-03-02T08:14:17;11.30;86.80
16347;DHT22;8283;48.504;13.734;2024-03-02T08:16:36;11.40;86.80
16347;DHT22;8283;48.504;13.734;2024-03-02T08:18:56;11.40;86.70
16347;DHT22;8283;48.504;13.734;2024-03-02T08:21:17;11.50;86.50
16347;DHT22;8283;48.504;13.734;2024-03-02T08:23:36;11.50;86.30
16347;DHT22;8283;48.504;13.734;2024-03-02T08:25:56;11.50;86.30
16347;DHT22;8283;48.504;13.734;2024-03-02T08:28:15;11.50;86.10
16347;DHT22;8283;48.504;13.734;2024-03-02T08:30:35;11.60;86.20
16347;DHT22;8283;48.504;13.734;2024-03-02T08:32:54;11.60;86.10
16347;DHT22;8283;48.504;13.734;2024-03-02T08:35:13;11.60;86.30
16347;DHT22;8283;48.504;13.734;2024-03-02T08:37:33;11.70;86.80
16347;DHT22;8283;48.504;13.734;2024-03-02T08:39:52;11.80;87.20
16347;DHT22;8283;48.504;13.734;2024-03-02T08:42:12;11.90;87.60
16347;DHT22;8283;48.504;13.734;2024-03-02T08:44:31;12.00;87.90
16347;DHT22;8283;48.504;13.734;2024-03-02T08:46:50;12.20;87.80
16347;DHT22;8283;48.504;13.734;2024-03-02T08:49:10;12.40;88.00
16347;DHT22;8283;48.504;13.734;2024-03-02T08:51:30;12.60;87.90
16347;DHT22;8283;48.504;13.734;2024-03-02T08:53:49;12.80;87.90
16347;DHT22;8283;48.504;13.734;2024-03-02T08:56:08;12.90;87.60
16347;DHT22;8283;48.504;13.734;2024-03-02T08:58:28;13.10;87.20
16347;DHT22;8283;48.504;13.734;2024-03-02T09:00:47;13.30;87.10
16347;DHT22;8283;48.504;13.734;2024-03-02T09:03:07;13.40;86.40
16347;DHT22;8283;48.504;13.734;2024-03-02T09:05:26;13.60;86.20
16347;DHT22;8283;48.504;13.734;2024-03-02T09:07:46;13.70;86.00
16347;DHT22;8283;48.504;13.734;2024-03-02T09:10:06;13.90;86.00
16347;DHT22;8283;48.504;13.734;2024-03-02T09:12:25;14.00;85.70
16347;DHT22;8283;48.504;13.734;2024-03-02T09:14:46;14.10;85.70
16347;DHT22;8283;48.504;13.734;2024-03-02T09:17:06;14.30;85.60
16347;DHT22;8283;48.504;13.734;2024-03-02T09:19:25;14.50;85.70
16347;DHT22;8283;48.504;13.734;2024-03-02T09:21:44;14.70;85.50
16347;DHT22;8283;48.504;13.734;2024-03-02T09:24:04;14.80;85.10
16347;DHT22;8283;48.504;13.734;2024-03-02T09:26:25;15.00;85.00
16347;DHT22;8283;48.504;13.734;2024-03-02T09:28:45;15.20;84.80
16347;DHT22;8283;48.504;13.734;2024-03-02T09:31:04;15.40;84.00
16347;DHT22;8283;48.504;13.734;2024-03-02T09:33:23;15.50;83.80
16347;DHT22;8283;48.504;13.734;2024-03-02T09:35:43;15.60;83.50
16347;DHT22;8283;48.504;13.734;2024-03-02T09:38:03;15.80;83.00
16347;DHT22;8283;48.504;13.734;2024-03-02T09:40:22;15.90;82.40
16347;DHT22;8283;48.504;13.734;2024-03-02T09:42:42;16.00;81.90
16347;DHT22;8283;48.504;13.734;2024-03-02T09:45:02;16.20;81.50
16347;DHT22;8283;48.504;13.734;2024-03-02T09:47:22;16.30;81.40
16347;DHT22;8283;48.504;13.734;2024-03-02T09:49:41;16.40;81.10
16347;DHT22;8283;48.504;13.734;2024-03-02T09:52:01;16.50;81.00
16347;DHT22;8283;48.504;13.734;2024-03-02T09:54:22;16.60;80.90
16347;DHT22;8283;48.504;13.734;2024-03-02T09:56:42;16.70;80.60
16347;DHT22;8283;48.504;13.734;2024-03-02T09:59:01;16.80;80.70
16347;DHT22;8283;48.504;13.734;2024-03-02T10:01:20;16.90;80.50
16347;DHT22;8283;48.504;13.734;2024-03-02T10:03:40;17.00;79.80
16347;DHT22;8283;48.504;13.734;2024-03-02T10:06:19;17.10;79.40
16347;DHT22;8283;48.504;13.734;2024-03-02T10:08:45;17.10;75.50
16347;DHT22;8283;48.504;13.734;2024-03-02T10:11:04;17.20;76.50
16347;DHT22;8283;48.504;13.734;2024-03-02T10:13:25;17.20;78.90
16347;DHT22;8283;48.504;13.734;2024-03-02T10:15:44;17.30;78.50
16347;DHT22;8283;48.504;13.734;2024-03-02T10:18:04;17.40;75.70
16347;DHT22;8283;48.504;13.734;2024-03-02T10:20:25;17.50;78.90
16347;DHT22;8283;48.504;13.734;2024-03-02T10:22:44;17.60;78.40
16347;DHT22;8283;48.504;13.734;2024-03-02T10:25:04;17.70;78.20
16347;DHT22;8283;48.504;13.734;2024-03-02T10:27:27;17.80;78.00
16347;DHT22;8283;48.504;13.734;2024-03-02T10:29:47;17.90;77.30
16347;DHT22;8283;48.504;13.734;2024-03-02T10:32:10;17.90;77.70
16347;DHT22;8283;48.504;13.734;2024-03-02T10:34:32;18.00;76.10
16347;DHT22;8283;48.504;13.734;2024-03-02T10:36:52;18.10;77.30
16347;DHT22;8283;48.504;13.734;2024-03-02T10:39:13;18.20;77.20
16347;DHT22;8283;48.504;13.734;2024-03-02T10:41:35;18.20;76.70
16347;DHT22;8283;48.504;13.734;2024-03-02T10:43:56;18.30;76.80
16347;DHT22;8283;48.504;13.734;2024-03-02T10:46:20;18.50;76.60
16347;DHT22;8283;48.504;13.734;2024-03-02T10:48:40;18.50;77.10
16347;DHT22;8283;48.504;13.734;2024-03-02T10:51:00;18.60;75.60
16347;DHT22;8283;48.504;13.734;2024-03-02T10:53:20;18.70;76.00
16347;DHT22;8283;48.504;13.734;2024-03-02T10:55:40;18.80;75.80
16347;DHT22;8283;48.504;13.734;2024-03-02T10:58:00;18.80;75.40
16347;DHT22;8283;48.504;13.734;2024-03-02T11:00:24;18.90;75.10
16347;DHT22;8283;48.504;13.734;2024-03-02T11:02:56;19.00;74.70
16347;DHT22;8283;48.504;13.734;2024-03-02T11:05:18;19.10;73.30
16347;DHT22;8283;48.504;13.734;2024-03-02T11:07:41;19.20;74.20
16347;DHT22;8283;48.504;13.734;2024-03-02T11:10:02;19.20;74.50
16347;DHT22;8283;48.504;13.734;2024-03-02T11:12:31;19.30;73.90
16347;DHT22;8283;48.504;13.734;2024-03-02T11:14:55;19.40;74.10
16347;DHT22;8283;48.504;13.734;2024-03-02T11:17:15;19.50;73.10
16347;DHT22;8283;48.504;13.734;2024-03-02T11:19:36;19.60;73.20
16347;DHT22;8283;48.504;13.734;2024-03-02T11:21:57;19.60;72.10
16347;DHT22;8283;48.504;13.734;2024-03-02T11:26:52;19.70;71.20
16347;DHT22;8283;48.504;13.734;2024-03-02T11:32:00;20.00;69.30
16347;DHT22;8283;48.504;13.734;2024-03-02T11:34:34;20.10;72.80
16347;DHT22;8283;48.504;13.734;2024-03-02T11:36:53;20.20;69.30
16347;DHT22;8283;48.504;13.734;2024-03-02T11:39:13;20.20;72.30
16347;DHT22;8283;48.504;13.734;2024-03-02T11:41:32;20.30;71.30
16347;DHT22;8283;48.504;13.734;2024-03-02T11:43:52;20.30;70.00
16347;DHT22;8283;48.504;13.734;2024-03-02T11:46:11;20.30;70.50
16347;DHT22;8283;48.504;13.734;2024-03-02T11:48:32;20.30;70.10
16347;DHT22;8283;48.504;13.734;2024-03-02T11:50:58;20.40;70.20
16347;DHT22;8283;48.504;13.734;2024-03-02T11:53:19;20.40;69.20
16347;DHT22;8283;48.504;13.734;2024-03-02T11:55:39;20.40;69.80
16347;DHT22;8283;48.504;13.734;2024-03-02T11:58:05;20.40;69.70
16347;DHT22;8283;48.504;13.734;2024-03-02T12:00:24;20.40;69.10
16347;DHT22;8283;48.504;13.734;2024-03-02T12:02:45;20.50;69.20
16347;DHT22;8283;48.504;13.734;2024-03-02T12:05:09;20.50;68.60
16347;DHT22;8283;48.504;13.734;2024-03-02T12:07:28;20.40;68.70
16347;DHT22;8283;48.504;13.734;2024-03-02T12:09:49;20.40;69.20
16347;DHT22;8283;48.504;13.734;2024-03-02T12:12:18;20.50;69.00
16347;DHT22;8283;48.504;13.734;2024-03-02T12:14:53;20.50;68.70
16347;DHT22;8283;48.504;13.734;2024-03-02T12:17:14;20.50;66.10
16347;DHT22;8283;48.504;13.734;2024-03-02T12:19:34;20.50;68.70
16347;DHT22;8283;48.504;13.734;2024-03-02T12:21:53;20.60;68.60
16347;DHT22;8283;48.504;13.734;2024-03-02T12:24:13;20.60;68.50
16347;DHT22;8283;48.504;13.734;2024-03-02T12:26:33;20.60;68.60
16347;DHT22;8283;48.504;13.734;2024-03-02T12:28:52;20.70;68.70
16347;DHT22;8283;48.504;13.734;2024-03-02T12:31:11;20.70;68.80
16347;DHT22;8283;48.504;13.734;2024-03-02T12:33:31;20.80;69.40
16347;DHT22;8283;48.504;13.734;2024-03-02T12:35:51;20.90;68.30
16347;DHT22;8283;48.504;13.734;2024-03-02T12:38:10;21.00;68.40
16347;DHT22;8283;48.504;13.734;2024-03-02T12:40:30;21.00;68.10
16347;DHT22;8283;48.504;13.734;2024-03-02T12:42:50;21.10;67.90
16347;DHT22;8283;48.504;13.734;2024-03-02T12:45:10;21.10;67.60
16347;DHT22;8283;48.504;13.734;2024-03-02T12:47:30;21.10;67.50
16347;DHT22;8283;48.504;13.734;2024-03-02T12:49:49;21.10;67.50
16347;DHT22;8283;48.504;13.734;2024-03-02T12:52:13;21.10;66.90
16347;DHT22;8283;48.504;13.734;2024-03-02T12:54:32;21.10;66.50
16347;DHT22;8283;48.504;13.734;2024-03-02T12:56:52;21.10;64.30
16347;DHT22;8283;48.504;13.734;2024-03-02T12:59:19;21.10;67.00
16347;DHT22;8283;48.504;13.734;2024-03-02T13:01:52;21.10;64.90
16347;DHT22;8283;48.504;13.734;2024-03-02T13:04:12;21.10;65.00
16347;DHT22;8283;48.504;13.734;2024-03-02T13:06:33;21.00;66.80
16347;DHT22;8283;48.504;13.734;2024-03-02T13:08:53;20.90;65.90
16347;DHT22;8283;48.504;13.734;2024-03-02T13:11:13;20.90;66.40
16347;DHT22;8283;48.504;13.734;2024-03-02T13:13:33;20.80;66.10
16347;DHT22;8283;48.504;13.734;2024-03-02T13:15:56;20.80;66.20
16347;DHT22;8283;48.504;13.734;2024-03-02T13:18:18;20.70;65.40
16347;DHT22;8283;48.504;13.734;2024-03-02T13:20:38;20.70;65.30
16347;DHT22;8283;48.504;13.734;2024-03-02T13:22:59;20.70;66.10
16347;DHT22;8283;48.504;13.734;2024-03-02T13:25:18;20.70;63.40
16347;DHT22;8283;48.504;13.734;2024-03-02T13:27:38;20.30;65.90
16347;DHT22;8283;48.504;13.734;2024-03-02T13:29:57;20.60;66.20
16347;DHT22;8283;48.504;13.734;2024-03-02T13:32:18;20.60;66.00
16347;DHT22;8283;48.504;13.734;2024-03-02T13:34:43;20.50;65.60
16347;DHT22;8283;48.504;13.734;2024-03-02T13:37:03;20.50;65.60
16347;DHT22;8283;48.504;13.734;2024-03-02T13:39:23;20.40;65.60
16347;DHT22;8283;48.504;13.734;2024-03-02T13:41:43;20.40;63.60
16347;DHT22;8283;48.504;13.734;2024-03-02T13:44:10;20.40;65.80
16347;DHT22;8283;48.504;13.734;2024-03-02T13:46:30;20.30;65.80
16347;DHT22;8283;48.504;13.734;2024-03-02T13:48:49;20.20;65.50
16347;DHT22;8283;48.504;13.734;2024-03-02T13:51:10;20.20;65.50
16347;DHT22;8283;48.504;13.734;2024-03-02T13:53:29;20.10;65.40
16347;DHT22;8283;48.504;13.734;2024-03-02T13:55:48;20.10;65.40
16347;DHT22;8283;48.504;13.734;2024-03-02T13:58:08;20.00;65.40
16347;DHT22;8283;48.504;13.734;2024-03-02T14:00:27;20.00;65.30
16347;DHT22;8283;48.504;13.734;2024-03-02T14:02:48;19.90;65.20
16347;DHT22;8283;48.504;13.734;2024-03-02T14:05:11;19.90;64.60
16347;DHT22;8283;48.504;13.734;2024-03-02T14:07:31;19.80;65.00
16347;DHT22;8283;48.504;13.734;2024-03-02T14:09:50;19.80;65.20
16347;DHT22;8283;48.504;13.734;2024-03-02T14:12:10;19.80;65.40
16347;DHT22;8283;48.504;13.734;2024-03-02T14:14:29;19.70;65.30
16347;DHT22;8283;48.504;13.734;2024-03-02T14:16:48;19.70;65.40
16347;DHT22;8283;48.504;13.734;2024-03-02T14:19:08;19.70;65.40
16347;DHT22;8283;48.504;13.734;2024-03-02T14:21:28;19.70;65.30
16347;DHT22;8283;48.504;13.734;2024-03-02T14:23:48;19.70;65.20
16347;DHT22;8283;48.504;13.734;2024-03-02T14:26:07;19.70;65.30
16347;DHT22;8283;48.504;13.734;2024-03-02T14:28:27;19.70;65.30
16347;DHT22;8283;48.504;13.734;2024-03-02T14:30:47;19.70;65.10
16347;DHT22;8283;48.504;13.734;2024-03-02T14:33:06;19.70;65.20
16347;DHT22;8283;48.504;13.734;2024-03-02T14:35:25;19.80;65.30
16347;DHT22;8283;48.504;13.734;2024-03-02T14:37:45;19.80;65.20
16347;DHT22;8283;48.504;13.734;2024-03-02T14:40:04;19.80;65.40
16347;DHT22;8283;48.504;13.734;2024-03-02T14:42:25;19.80;65.20
16347;DHT22;8283;48.504;13.734;2024-03-02T14:44:44;19.80;64.50
16347;DHT22;8283;48.504;13.734;2024-03-02T14:47:04;19.80;64.70
16347;DHT22;8283;48.504;13.734;2024-03-02T14:49:23;19.70;64.60
16347;DHT22;8283;48.504;13.734;2024-03-02T14:51:44;19.70;64.60
16347;DHT22;8283;48.504;13.734;2024-03-02T14:54:03;19.60;64.30
16347;DHT22;8283;48.504;13.734;2024-03-02T14:56:23;19.50;64.40
16347;DHT22;8283;48.504;13.734;2024-03-02T14:58:42;19.40;64.40